Currently 41°F in Murrieta, California, USA
41°F
47°F / 40°F
calm
0.00"
Saturday, January 18, 2020 6:39 AM PST

Murrieta, California Weather Summary
Last 36 Hours

Temperature Winds Hourly Humidity Dewpoint
Time Report Norm Report Norm Max Gusts Precip. Rpt. Norm Rpt. Norm Pressure
1Sat 06:39 AM  40.8°F  43°F  calm  1 mph  none  0.00"  83%  80%  36°F  38°F  30.23"
Sat 06:00 AM  45.2°F  44°F  calm  1 mph  9 mph  0.00"  76%  80%  38°F  38°F  30.23"
Sat 05:00 AM  43.3°F  44°F  calm  1 mph  10 mph  0.00"  85%  80%  39°F  38°F  30.21"
3Sat 04:32 AM  39.9°F  44°F  3 mph NW  1 mph  8 mph  ----  93%  79%  38°F  38°F  30.20"
Sat 04:00 AM  40.5°F  45°F  calm  1 mph  none  0.00"  93%  78%  38°F  38°F  30.21"
Sat 03:00 AM  41.7°F  46°F  calm  1 mph  none  0.00"  89%  76%  39°F  38°F  30.23"
Sat 02:00 AM  44.1°F  47°F  calm  1 mph  10 mph  0.00"  84%  75%  39°F  39°F  30.23"
Sat 01:00 AM  43.6°F  47°F  calm  1 mph  6 mph  0.00"  86%  74%  40°F  39°F  30.24"
2Sat 12:00 AM  47.3°F  48°F  calm  1 mph  10 mph  0.00"  80%  72%  41°F  39°F  30.24"
Fri 11:00 PM  48.4°F  49°F  calm  1 mph  8 mph  0.00"  76%  71%  41°F  40°F  30.23"
Fri 10:00 PM  46.3°F  50°F  4 mph N  1 mph  9 mph  0.00"  85%  68%  42°F  40°F  30.23"
Fri 09:00 PM  47.9°F  52°F  calm  1 mph  8 mph  0.00"  81%  66%  42°F  40°F  30.22"
Fri 08:00 PM  49.7°F  53°F  5 mph NW  1 mph  6 mph  0.00"  78%  64%  43°F  41°F  30.21"
Fri 07:00 PM  51.6°F  55°F  calm  2 mph  5 mph  0.00"  74%  60%  43°F  41°F  30.20"
Fri 06:00 PM  52.5°F  57°F  calm  3 mph  4 mph  0.00"  72%  57%  43°F  42°F  30.20"
Fri 05:00 PM  54.0°F  61°F  3 mph NW  3 mph  7 mph  0.00"  68%  51%  43°F  42°F  30.19"
Fri 04:00 PM  58.0°F  64°F  calm  4 mph  8 mph  0.00"  59%  45%  43°F  42°F  30.19"
Fri 03:00 PM  61.4°F  67°F  calm  4 mph  7 mph  0.00"  49%  40%  41°F  41°F  30.19"
Fri 02:00 PM  60.3°F  68°F  calm  5 mph  7 mph  0.00"  52%  40%  42°F  41°F  30.20"
Fri 01:00 PM  58.1°F  67°F  2 mph SW  4 mph  10 mph  0.00"  57%  41%  43°F  42°F  30.22"
Fri 12:00 PM  56.7°F  65°F  calm  4 mph  8 mph  0.00"  76%  44%  49°F  42°F  30.25"
Fri 11:00 AM  53.1°F  62°F  3 mph S  3 mph  7 mph  0.00"  94%  51%  51°F  43°F  30.27"
Fri 10:00 AM  50.4°F  57°F  calm  2 mph  4 mph  0.00"  98%  61%  50°F  43°F  30.25"
Fri 09:00 AM  48.5°F  51°F  calm  1 mph  3 mph  0.00"  97%  73%  48°F  42°F  30.25"
Fri 08:00 AM  48.0°F  46°F  calm  1 mph  none  0.00"  97%  81%  47°F  40°F  30.21"
Fri 07:00 AM  47.6°F  43°F  calm  1 mph  none  0.01"  97%  81%  47°F  38°F  30.20"
Fri 06:00 AM  47.4°F  44°F  calm  1 mph  none  0.00"  97%  81%  47°F  38°F  30.17"
Fri 05:00 AM  47.4°F  44°F  calm  1 mph  none  0.02"  97%  81%  47°F  38°F  30.15"
Fri 04:00 AM  47.4°F  45°F  calm  1 mph  none  0.00"  97%  78%  47°F  38°F  30.15"
Fri 03:00 AM  47.5°F  46°F  calm  1 mph  none  0.05"  96%  77%  46°F  39°F  30.17"
Fri 02:00 AM  47.7°F  47°F  calm  1 mph  none  0.03"  96%  75%  46°F  39°F  30.16"
Fri 01:00 AM  47.9°F  47°F  calm  1 mph  none  0.01"  95%  75%  47°F  39°F  30.15"
Fri 12:00 AM  48.7°F  48°F  calm  1 mph  none  0.00"  92%  73%  46°F  40°F  30.16"
Thu 11:00 PM  48.9°F  49°F  calm  1 mph  10 mph  0.00"  89%  71%  46°F  40°F  30.16"
Thu 10:00 PM  49.0°F  50°F  calm  1 mph  none  0.00"  88%  69%  45°F  40°F  30.14"
Thu 09:00 PM  50.0°F  52°F  calm  1 mph  none  0.00"  88%  67%  46°F  40°F  30.14"
Thu 08:00 PM  50.2°F  53°F  calm  2 mph  8 mph  0.00"  86%  64%  46°F  41°F  30.12"
Thu 07:00 PM  49.8°F  55°F  calm  2 mph  14 mph  0.00"  85%  61%  45°F  41°F  30.11"

  1. Current weather data. No green row appears if the current weather data is also the high or low for the current day.
  2. High temperature for the current day.
  3. Low temperature for the current day.

The Murrieta weather pages are a service of WeatherCurrents. Murrieta, California is located in the Temecula Valley, in southwestern Riverside County, at the junctions of the Interstate 15 and 215 highways.
Copyright ©2020  WeatherCurrents. All rights reserved. - Submit questions and comments - Privacy Policy

This page automatically refreshes every 10 minutes.